sensor_id;sensor_type;location;lat;lon;timestamp;P1;durP1;ratioP1;P2;durP2;ratioP2
75818;SDS011;64453;51.944;9.796;2023-02-28T00:01:10;2.00;;;1.90;;
75818;SDS011;64453;51.944;9.796;2023-02-28T00:03:39;1.80;;;1.70;;
75818;SDS011;64453;51.944;9.796;2023-02-28T00:06:06;2.20;;;2.10;;
75818;SDS011;64453;51.944;9.796;2023-02-28T00:08:35;1.87;;;1.77;;
75818;SDS011;64453;51.944;9.796;2023-02-28T00:11:03;2.00;;;1.90;;
75818;SDS011;64453;51.944;9.796;2023-02-28T00:13:33;1.50;;;1.47;;
75818;SDS011;64453;51.944;9.796;2023-02-28T00:16:04;1.93;;;1.83;;
75818;SDS011;64453;51.944;9.796;2023-02-28T00:18:34;1.93;;;1.83;;
75818;SDS011;64453;51.944;9.796;2023-02-28T00:21:01;1.40;;;1.40;;
75818;SDS011;64453;51.944;9.796;2023-02-28T00:23:30;1.80;;;1.70;;
75818;SDS011;64453;51.944;9.796;2023-02-28T00:25:57;1.90;;;1.80;;
75818;SDS011;64453;51.944;9.796;2023-02-28T00:28:23;1.87;;;1.77;;
75818;SDS011;64453;51.944;9.796;2023-02-28T00:30:50;1.73;;;1.63;;
75818;SDS011;64453;51.944;9.796;2023-02-28T00:33:17;1.63;;;1.53;;
75818;SDS011;64453;51.944;9.796;2023-02-28T00:35:44;1.40;;;1.30;;
75818;SDS011;64453;51.944;9.796;2023-02-28T00:38:11;1.40;;;1.40;;
75818;SDS011;64453;51.944;9.796;2023-02-28T00:40:40;2.23;;;1.30;;
75818;SDS011;64453;51.944;9.796;2023-02-28T00:43:07;1.33;;;1.23;;
75818;SDS011;64453;51.944;9.796;2023-02-28T00:45:34;1.20;;;1.20;;
75818;SDS011;64453;51.944;9.796;2023-02-28T00:48:00;1.80;;;1.73;;
75818;SDS011;64453;51.944;9.796;2023-02-28T00:50:27;1.90;;;1.80;;
75818;SDS011;64453;51.944;9.796;2023-02-28T00:52:54;1.90;;;1.80;;
75818;SDS011;64453;51.944;9.796;2023-02-28T00:55:21;1.97;;;1.87;;
75818;SDS011;64453;51.944;9.796;2023-02-28T00:57:49;1.67;;;1.50;;
75818;SDS011;64453;51.944;9.796;2023-02-28T01:00:16;1.60;;;1.57;;
75818;SDS011;64453;51.944;9.796;2023-02-28T01:02:44;1.80;;;1.70;;
75818;SDS011;64453;51.944;9.796;2023-02-28T01:05:11;2.10;;;1.90;;
75818;SDS011;64453;51.944;9.796;2023-02-28T01:07:38;1.50;;;1.50;;
75818;SDS011;64453;51.944;9.796;2023-02-28T01:10:05;1.70;;;1.60;;
75818;SDS011;64453;51.944;9.796;2023-02-28T01:12:33;1.30;;;1.30;;
75818;SDS011;64453;51.944;9.796;2023-02-28T01:15:01;1.50;;;1.40;;
75818;SDS011;64453;51.944;9.796;2023-02-28T01:17:28;2.90;;;1.77;;
75818;SDS011;64453;51.944;9.796;2023-02-28T01:19:55;1.73;;;1.63;;
75818;SDS011;64453;51.944;9.796;2023-02-28T01:22:21;1.60;;;1.50;;
75818;SDS011;64453;51.944;9.796;2023-02-28T01:24:49;1.10;;;1.10;;
75818;SDS011;64453;51.944;9.796;2023-02-28T01:27:15;1.80;;;1.70;;
75818;SDS011;64453;51.944;9.796;2023-02-28T01:29:42;1.30;;;1.30;;
75818;SDS011;64453;51.944;9.796;2023-02-28T01:32:10;1.40;;;1.33;;
75818;SDS011;64453;51.944;9.796;2023-02-28T01:34:37;1.50;;;1.40;;
75818;SDS011;64453;51.944;9.796;2023-02-28T01:37:04;1.37;;;1.27;;
75818;SDS011;64453;51.944;9.796;2023-02-28T01:39:32;2.20;;;1.50;;
75818;SDS011;64453;51.944;9.796;2023-02-28T01:41:58;1.83;;;1.30;;
75818;SDS011;64453;51.944;9.796;2023-02-28T01:47:46;1.80;;;1.70;;
75818;SDS011;64453;51.944;9.796;2023-02-28T01:50:17;1.60;;;1.37;;
75818;SDS011;64453;51.944;9.796;2023-02-28T01:52:48;1.70;;;1.60;;
75818;SDS011;64453;51.944;9.796;2023-02-28T01:55:17;1.33;;;1.33;;
75818;SDS011;64453;51.944;9.796;2023-02-28T01:57:46;2.30;;;1.67;;
75818;SDS011;64453;51.944;9.796;2023-02-28T02:00:20;1.73;;;1.63;;
75818;SDS011;64453;51.944;9.796;2023-02-28T02:02:54;1.70;;;1.60;;
75818;SDS011;64453;51.944;9.796;2023-02-28T02:05:26;1.57;;;1.40;;
75818;SDS011;64453;51.944;9.796;2023-02-28T02:07:56;1.20;;;1.20;;
75818;SDS011;64453;51.944;9.796;2023-02-28T02:10:29;1.80;;;1.70;;
75818;SDS011;64453;51.944;9.796;2023-02-28T02:15:56;1.53;;;1.43;;
75818;SDS011;64453;51.944;9.796;2023-02-28T02:18:33;1.20;;;1.20;;
75818;SDS011;64453;51.944;9.796;2023-02-28T02:21:26;1.73;;;1.70;;
75818;SDS011;64453;51.944;9.796;2023-02-28T02:24:24;1.70;;;1.60;;
75818;SDS011;64453;51.944;9.796;2023-02-28T02:27:24;1.40;;;1.30;;
75818;SDS011;64453;51.944;9.796;2023-02-28T02:30:09;1.50;;;1.40;;
75818;SDS011;64453;51.944;9.796;2023-02-28T02:36:24;1.60;;;1.17;;
75818;SDS011;64453;51.944;9.796;2023-02-28T02:38:55;1.90;;;1.47;;
75818;SDS011;64453;51.944;9.796;2023-02-28T02:41:34;1.27;;;1.27;;
75818;SDS011;64453;51.944;9.796;2023-02-28T02:44:09;1.63;;;1.53;;
75818;SDS011;64453;51.944;9.796;2023-02-28T02:46:41;1.57;;;1.40;;
75818;SDS011;64453;51.944;9.796;2023-02-28T02:49:13;1.40;;;1.40;;
75818;SDS011;64453;51.944;9.796;2023-02-28T02:51:47;1.30;;;1.30;;
75818;SDS011;64453;51.944;9.796;2023-02-28T02:54:17;1.20;;;1.20;;
75818;SDS011;64453;51.944;9.796;2023-02-28T02:56:47;1.63;;;1.30;;
75818;SDS011;64453;51.944;9.796;2023-02-28T02:59:17;1.10;;;1.10;;
75818;SDS011;64453;51.944;9.796;2023-02-28T03:01:48;2.03;;;1.50;;
75818;SDS011;64453;51.944;9.796;2023-02-28T03:04:18;1.60;;;1.50;;
75818;SDS011;64453;51.944;9.796;2023-02-28T03:06:49;1.70;;;1.60;;
75818;SDS011;64453;51.944;9.796;2023-02-28T03:09:19;1.53;;;1.37;;
75818;SDS011;64453;51.944;9.796;2023-02-28T03:11:46;1.40;;;1.40;;
75818;SDS011;64453;51.944;9.796;2023-02-28T03:17:25;1.57;;;1.47;;
75818;SDS011;64453;51.944;9.796;2023-02-28T03:20:14;1.30;;;1.30;;
75818;SDS011;64453;51.944;9.796;2023-02-28T03:22:52;1.10;;;1.10;;
75818;SDS011;64453;51.944;9.796;2023-02-28T03:25:29;2.13;;;2.00;;
75818;SDS011;64453;51.944;9.796;2023-02-28T03:28:05;1.30;;;1.30;;
75818;SDS011;64453;51.944;9.796;2023-02-28T03:30:43;1.70;;;1.60;;
75818;SDS011;64453;51.944;9.796;2023-02-28T03:33:17;1.80;;;1.67;;
75818;SDS011;64453;51.944;9.796;2023-02-28T03:35:50;1.33;;;1.23;;
75818;SDS011;64453;51.944;9.796;2023-02-28T03:38:23;1.13;;;1.13;;
75818;SDS011;64453;51.944;9.796;2023-02-28T03:40:57;1.40;;;1.40;;
75818;SDS011;64453;51.944;9.796;2023-02-28T03:43:32;1.20;;;1.17;;
75818;SDS011;64453;51.944;9.796;2023-02-28T03:46:06;1.20;;;1.10;;
75818;SDS011;64453;51.944;9.796;2023-02-28T03:48:37;1.60;;;1.50;;
75818;SDS011;64453;51.944;9.796;2023-02-28T03:51:09;1.20;;;1.20;;
75818;SDS011;64453;51.944;9.796;2023-02-28T03:53:43;1.67;;;1.57;;
75818;SDS011;64453;51.944;9.796;2023-02-28T03:56:15;1.00;;;1.00;;
75818;SDS011;64453;51.944;9.796;2023-02-28T03:58:47;1.87;;;1.33;;
75818;SDS011;64453;51.944;9.796;2023-02-28T04:01:20;1.73;;;1.63;;
75818;SDS011;64453;51.944;9.796;2023-02-28T04:03:52;2.30;;;1.43;;
75818;SDS011;64453;51.944;9.796;2023-02-28T04:06:19;1.30;;;1.20;;
75818;SDS011;64453;51.944;9.796;2023-02-28T04:08:50;1.57;;;1.30;;
75818;SDS011;64453;51.944;9.796;2023-02-28T04:11:22;1.20;;;1.10;;
75818;SDS011;64453;51.944;9.796;2023-02-28T04:13:51;2.20;;;1.60;;
75818;SDS011;64453;51.944;9.796;2023-02-28T04:16:18;2.87;;;1.50;;
75818;SDS011;64453;51.944;9.796;2023-02-28T04:18:45;1.67;;;1.40;;
75818;SDS011;64453;51.944;9.796;2023-02-28T04:21:12;1.70;;;1.60;;
75818;SDS011;64453;51.944;9.796;2023-02-28T04:23:39;1.53;;;1.43;;
75818;SDS011;64453;51.944;9.796;2023-02-28T04:26:07;2.00;;;1.90;;
75818;SDS011;64453;51.944;9.796;2023-02-28T04:28:34;1.50;;;1.40;;
75818;SDS011;64453;51.944;9.796;2023-02-28T04:31:03;1.67;;;1.40;;
75818;SDS011;64453;51.944;9.796;2023-02-28T04:33:31;1.10;;;1.10;;
75818;SDS011;64453;51.944;9.796;2023-02-28T04:35:59;1.70;;;1.60;;
75818;SDS011;64453;51.944;9.796;2023-02-28T04:38:28;1.40;;;1.40;;
75818;SDS011;64453;51.944;9.796;2023-02-28T04:40:56;1.80;;;1.40;;
75818;SDS011;64453;51.944;9.796;2023-02-28T04:43:26;1.40;;;1.30;;
75818;SDS011;64453;51.944;9.796;2023-02-28T04:45:54;1.60;;;1.50;;
75818;SDS011;64453;51.944;9.796;2023-02-28T04:48:22;1.57;;;1.50;;
75818;SDS011;64453;51.944;9.796;2023-02-28T04:50:49;1.23;;;1.23;;
75818;SDS011;64453;51.944;9.796;2023-02-28T04:53:16;3.90;;;2.00;;
75818;SDS011;64453;51.944;9.796;2023-02-28T04:55:43;1.67;;;1.57;;
75818;SDS011;64453;51.944;9.796;2023-02-28T04:58:11;1.43;;;1.33;;
75818;SDS011;64453;51.944;9.796;2023-02-28T05:00:39;2.03;;;1.80;;
75818;SDS011;64453;51.944;9.796;2023-02-28T05:03:07;1.50;;;1.40;;
75818;SDS011;64453;51.944;9.796;2023-02-28T05:05:34;1.53;;;1.43;;
75818;SDS011;64453;51.944;9.796;2023-02-28T05:08:01;1.30;;;1.30;;
75818;SDS011;64453;51.944;9.796;2023-02-28T05:10:30;1.40;;;1.40;;
75818;SDS011;64453;51.944;9.796;2023-02-28T05:12:57;1.60;;;1.53;;
75818;SDS011;64453;51.944;9.796;2023-02-28T05:15:24;2.80;;;1.47;;
75818;SDS011;64453;51.944;9.796;2023-02-28T05:17:52;1.23;;;1.23;;
75818;SDS011;64453;51.944;9.796;2023-02-28T05:20:19;1.50;;;1.50;;
75818;SDS011;64453;51.944;9.796;2023-02-28T05:22:46;1.93;;;1.83;;
75818;SDS011;64453;51.944;9.796;2023-02-28T05:25:15;1.67;;;1.57;;
75818;SDS011;64453;51.944;9.796;2023-02-28T05:27:44;1.80;;;1.63;;
75818;SDS011;64453;51.944;9.796;2023-02-28T05:30:11;1.70;;;1.60;;
75818;SDS011;64453;51.944;9.796;2023-02-28T05:32:39;1.73;;;1.63;;
75818;SDS011;64453;51.944;9.796;2023-02-28T05:35:10;1.70;;;1.60;;
75818;SDS011;64453;51.944;9.796;2023-02-28T05:37:38;1.67;;;1.50;;
75818;SDS011;64453;51.944;9.796;2023-02-28T05:40:06;1.90;;;1.77;;
75818;SDS011;64453;51.944;9.796;2023-02-28T05:42:35;3.27;;;2.53;;
75818;SDS011;64453;51.944;9.796;2023-02-28T05:45:02;3.00;;;2.77;;
75818;SDS011;64453;51.944;9.796;2023-02-28T05:47:30;1.80;;;1.70;;
75818;SDS011;64453;51.944;9.796;2023-02-28T05:49:57;4.00;;;3.60;;
75818;SDS011;64453;51.944;9.796;2023-02-28T05:52:26;3.20;;;2.70;;
75818;SDS011;64453;51.944;9.796;2023-02-28T05:54:55;2.60;;;2.40;;
75818;SDS011;64453;51.944;9.796;2023-02-28T05:57:22;2.50;;;2.30;;
75818;SDS011;64453;51.944;9.796;2023-02-28T05:59:48;2.60;;;2.40;;
75818;SDS011;64453;51.944;9.796;2023-02-28T06:02:16;2.70;;;2.50;;
75818;SDS011;64453;51.944;9.796;2023-02-28T06:04:44;2.60;;;2.50;;
75818;SDS011;64453;51.944;9.796;2023-02-28T06:07:11;2.60;;;2.40;;
75818;SDS011;64453;51.944;9.796;2023-02-28T06:09:39;2.47;;;2.27;;
75818;SDS011;64453;51.944;9.796;2023-02-28T06:12:06;3.43;;;1.90;;
75818;SDS011;64453;51.944;9.796;2023-02-28T06:14:35;1.13;;;1.13;;
75818;SDS011;64453;51.944;9.796;2023-02-28T06:17:02;2.37;;;2.10;;
75818;SDS011;64453;51.944;9.796;2023-02-28T06:19:30;1.67;;;1.57;;
75818;SDS011;64453;51.944;9.796;2023-02-28T06:21:57;2.13;;;2.03;;
75818;SDS011;64453;51.944;9.796;2023-02-28T06:24:24;2.43;;;2.33;;
75818;SDS011;64453;51.944;9.796;2023-02-28T06:26:55;2.40;;;2.20;;
75818;SDS011;64453;51.944;9.796;2023-02-28T06:29:23;2.43;;;2.23;;
75818;SDS011;64453;51.944;9.796;2023-02-28T06:31:50;1.90;;;1.80;;
75818;SDS011;64453;51.944;9.796;2023-02-28T06:34:17;2.07;;;1.97;;
75818;SDS011;64453;51.944;9.796;2023-02-28T06:36:44;3.00;;;2.80;;
75818;SDS011;64453;51.944;9.796;2023-02-28T06:39:11;2.50;;;2.30;;
75818;SDS011;64453;51.944;9.796;2023-02-28T06:41:37;2.70;;;2.50;;
75818;SDS011;64453;51.944;9.796;2023-02-28T06:44:08;2.47;;;2.10;;
75818;SDS011;64453;51.944;9.796;2023-02-28T06:46:39;2.47;;;2.27;;
75818;SDS011;64453;51.944;9.796;2023-02-28T06:49:06;1.77;;;1.77;;
75818;SDS011;64453;51.944;9.796;2023-02-28T06:51:35;2.10;;;2.00;;
75818;SDS011;64453;51.944;9.796;2023-02-28T06:54:04;2.73;;;2.40;;
75818;SDS011;64453;51.944;9.796;2023-02-28T06:56:34;2.83;;;2.63;;
75818;SDS011;64453;51.944;9.796;2023-02-28T06:59:01;2.63;;;2.43;;
75818;SDS011;64453;51.944;9.796;2023-02-28T07:01:30;2.20;;;2.10;;
75818;SDS011;64453;51.944;9.796;2023-02-28T07:03:58;2.27;;;2.07;;
75818;SDS011;64453;51.944;9.796;2023-02-28T07:06:25;2.50;;;1.93;;
75818;SDS011;64453;51.944;9.796;2023-02-28T07:08:53;3.23;;;3.00;;
75818;SDS011;64453;51.944;9.796;2023-02-28T07:11:20;3.17;;;2.93;;
75818;SDS011;64453;51.944;9.796;2023-02-28T07:13:50;3.33;;;3.10;;
75818;SDS011;64453;51.944;9.796;2023-02-28T07:16:17;8.23;;;2.50;;
75818;SDS011;64453;51.944;9.796;2023-02-28T07:18:46;2.70;;;2.50;;
75818;SDS011;64453;51.944;9.796;2023-02-28T07:21:13;2.33;;;2.23;;
75818;SDS011;64453;51.944;9.796;2023-02-28T07:23:40;2.03;;;1.90;;
75818;SDS011;64453;51.944;9.796;2023-02-28T07:26:10;2.10;;;1.90;;
75818;SDS011;64453;51.944;9.796;2023-02-28T07:28:39;2.63;;;2.43;;
75818;SDS011;64453;51.944;9.796;2023-02-28T07:31:07;2.53;;;2.33;;
75818;SDS011;64453;51.944;9.796;2023-02-28T07:33:34;2.80;;;2.67;;
75818;SDS011;64453;51.944;9.796;2023-02-28T07:36:03;2.67;;;2.57;;
75818;SDS011;64453;51.944;9.796;2023-02-28T07:38:33;3.40;;;3.10;;
75818;SDS011;64453;51.944;9.796;2023-02-28T07:41:00;3.00;;;2.80;;
75818;SDS011;64453;51.944;9.796;2023-02-28T07:43:29;2.60;;;2.50;;
75818;SDS011;64453;51.944;9.796;2023-02-28T07:45:56;2.60;;;2.40;;
75818;SDS011;64453;51.944;9.796;2023-02-28T07:48:28;2.47;;;2.30;;
75818;SDS011;64453;51.944;9.796;2023-02-28T07:50:55;3.10;;;2.90;;
75818;SDS011;64453;51.944;9.796;2023-02-28T07:53:23;3.47;;;3.27;;
75818;SDS011;64453;51.944;9.796;2023-02-28T07:55:50;3.50;;;3.27;;
75818;SDS011;64453;51.944;9.796;2023-02-28T07:58:20;3.33;;;3.13;;
75818;SDS011;64453;51.944;9.796;2023-02-28T08:00:47;2.90;;;2.70;;
75818;SDS011;64453;51.944;9.796;2023-02-28T08:03:14;2.40;;;2.30;;
75818;SDS011;64453;51.944;9.796;2023-02-28T08:05:41;3.43;;;3.17;;
75818;SDS011;64453;51.944;9.796;2023-02-28T08:08:08;5.33;;;4.83;;
75818;SDS011;64453;51.944;9.796;2023-02-28T08:10:36;4.27;;;3.87;;
75818;SDS011;64453;51.944;9.796;2023-02-28T08:13:03;5.30;;;4.80;;
75818;SDS011;64453;51.944;9.796;2023-02-28T08:15:30;4.80;;;4.40;;
75818;SDS011;64453;51.944;9.796;2023-02-28T08:17:57;4.70;;;4.30;;
75818;SDS011;64453;51.944;9.796;2023-02-28T08:20:24;3.60;;;3.40;;
75818;SDS011;64453;51.944;9.796;2023-02-28T08:22:51;4.10;;;2.53;;
75818;SDS011;64453;51.944;9.796;2023-02-28T08:25:18;3.80;;;3.50;;
75818;SDS011;64453;51.944;9.796;2023-02-28T08:27:47;3.13;;;2.67;;
75818;SDS011;64453;51.944;9.796;2023-02-28T08:30:16;3.20;;;3.00;;
75818;SDS011;64453;51.944;9.796;2023-02-28T08:32:43;2.90;;;2.70;;
75818;SDS011;64453;51.944;9.796;2023-02-28T08:35:10;3.97;;;3.57;;
75818;SDS011;64453;51.944;9.796;2023-02-28T08:37:37;3.40;;;3.20;;
75818;SDS011;64453;51.944;9.796;2023-02-28T08:40:04;5.17;;;4.67;;
75818;SDS011;64453;51.944;9.796;2023-02-28T08:42:33;5.80;;;5.20;;
75818;SDS011;64453;51.944;9.796;2023-02-28T08:45:01;6.13;;;5.37;;
75818;SDS011;64453;51.944;9.796;2023-02-28T08:47:28;5.30;;;4.90;;
75818;SDS011;64453;51.944;9.796;2023-02-28T08:49:55;5.57;;;5.07;;
75818;SDS011;64453;51.944;9.796;2023-02-28T08:52:22;4.77;;;4.27;;
75818;SDS011;64453;51.944;9.796;2023-02-28T08:54:49;4.37;;;3.97;;
75818;SDS011;64453;51.944;9.796;2023-02-28T08:57:15;3.97;;;3.67;;
75818;SDS011;64453;51.944;9.796;2023-02-28T08:59:42;3.83;;;3.30;;
75818;SDS011;64453;51.944;9.796;2023-02-28T09:02:11;4.00;;;3.63;;
75818;SDS011;64453;51.944;9.796;2023-02-28T09:04:39;4.33;;;3.40;;
75818;SDS011;64453;51.944;9.796;2023-02-28T09:07:06;3.87;;;3.57;;
75818;SDS011;64453;51.944;9.796;2023-02-28T09:09:34;5.23;;;3.83;;
75818;SDS011;64453;51.944;9.796;2023-02-28T09:12:01;3.67;;;3.40;;
75818;SDS011;64453;51.944;9.796;2023-02-28T09:14:30;3.73;;;3.47;;
75818;SDS011;64453;51.944;9.796;2023-02-28T09:16:57;3.83;;;3.53;;
75818;SDS011;64453;51.944;9.796;2023-02-28T09:19:25;4.80;;;4.30;;
75818;SDS011;64453;51.944;9.796;2023-02-28T09:21:52;3.93;;;3.57;;
75818;SDS011;64453;51.944;9.796;2023-02-28T09:24:19;3.70;;;3.40;;
75818;SDS011;64453;51.944;9.796;2023-02-28T09:26:46;4.50;;;4.20;;
75818;SDS011;64453;51.944;9.796;2023-02-28T09:29:13;4.37;;;4.07;;
75818;SDS011;64453;51.944;9.796;2023-02-28T09:31:41;4.67;;;4.27;;
75818;SDS011;64453;51.944;9.796;2023-02-28T09:34:08;5.00;;;4.60;;
75818;SDS011;64453;51.944;9.796;2023-02-28T09:36:36;4.47;;;4.13;;
75818;SDS011;64453;51.944;9.796;2023-02-28T09:39:03;3.90;;;3.60;;
75818;SDS011;64453;51.944;9.796;2023-02-28T09:41:32;4.10;;;3.80;;
75818;SDS011;64453;51.944;9.796;2023-02-28T09:44:12;4.70;;;4.07;;
75818;SDS011;64453;51.944;9.796;2023-02-28T09:46:47;5.30;;;4.80;;
75818;SDS011;64453;51.944;9.796;2023-02-28T09:49:19;4.77;;;4.37;;
75818;SDS011;64453;51.944;9.796;2023-02-28T09:51:53;4.53;;;4.23;;
75818;SDS011;64453;51.944;9.796;2023-02-28T09:54:28;4.73;;;4.33;;
75818;SDS011;64453;51.944;9.796;2023-02-28T09:56:59;4.13;;;3.93;;
75818;SDS011;64453;51.944;9.796;2023-02-28T09:59:39;6.50;;;4.93;;
75818;SDS011;64453;51.944;9.796;2023-02-28T10:02:39;3.90;;;3.60;;
75818;SDS011;64453;51.944;9.796;2023-02-28T10:05:20;4.10;;;3.80;;
75818;SDS011;64453;51.944;9.796;2023-02-28T10:08:00;3.90;;;3.50;;
75818;SDS011;64453;51.944;9.796;2023-02-28T10:10:35;4.67;;;3.03;;
75818;SDS011;64453;51.944;9.796;2023-02-28T10:13:06;3.20;;;3.00;;
75818;SDS011;64453;51.944;9.796;2023-02-28T10:15:42;4.27;;;3.80;;
75818;SDS011;64453;51.944;9.796;2023-02-28T10:18:13;3.77;;;3.47;;
75818;SDS011;64453;51.944;9.796;2023-02-28T10:20:46;3.73;;;3.53;;
75818;SDS011;64453;51.944;9.796;2023-02-28T10:23:19;3.53;;;3.33;;
75818;SDS011;64453;51.944;9.796;2023-02-28T10:25:50;3.47;;;3.27;;
75818;SDS011;64453;51.944;9.796;2023-02-28T10:28:21;4.37;;;4.00;;
75818;SDS011;64453;51.944;9.796;2023-02-28T10:30:52;4.37;;;4.03;;
75818;SDS011;64453;51.944;9.796;2023-02-28T10:33:21;3.33;;;3.10;;
75818;SDS011;64453;51.944;9.796;2023-02-28T10:35:51;2.57;;;2.37;;
75818;SDS011;64453;51.944;9.796;2023-02-28T10:38:20;2.97;;;2.67;;
75818;SDS011;64453;51.944;9.796;2023-02-28T10:40:50;2.27;;;2.10;;
75818;SDS011;64453;51.944;9.796;2023-02-28T10:43:18;3.73;;;2.60;;
75818;SDS011;64453;51.944;9.796;2023-02-28T10:45:55;2.00;;;1.90;;
75818;SDS011;64453;51.944;9.796;2023-02-28T10:48:27;2.60;;;2.43;;
75818;SDS011;64453;51.944;9.796;2023-02-28T10:50:59;1.83;;;1.73;;
75818;SDS011;64453;51.944;9.796;2023-02-28T10:53:32;1.80;;;1.70;;
75818;SDS011;64453;51.944;9.796;2023-02-28T10:56:04;1.60;;;1.50;;
75818;SDS011;64453;51.944;9.796;2023-02-28T10:58:46;2.20;;;2.00;;
75818;SDS011;64453;51.944;9.796;2023-02-28T11:01:19;2.23;;;1.43;;
75818;SDS011;64453;51.944;9.796;2023-02-28T11:03:48;1.60;;;1.50;;
75818;SDS011;64453;51.944;9.796;2023-02-28T11:06:17;1.43;;;1.33;;
75818;SDS011;64453;51.944;9.796;2023-02-28T11:08:49;1.47;;;1.47;;
75818;SDS011;64453;51.944;9.796;2023-02-28T11:11:19;3.10;;;2.07;;
75818;SDS011;64453;51.944;9.796;2023-02-28T11:13:50;1.50;;;1.40;;
75818;SDS011;64453;51.944;9.796;2023-02-28T11:16:19;2.13;;;2.03;;
75818;SDS011;64453;51.944;9.796;2023-02-28T11:18:48;1.80;;;1.70;;
75818;SDS011;64453;51.944;9.796;2023-02-28T11:21:19;2.00;;;1.90;;
75818;SDS011;64453;51.944;9.796;2023-02-28T11:23:53;1.83;;;1.73;;
75818;SDS011;64453;51.944;9.796;2023-02-28T11:26:37;3.47;;;1.87;;
75818;SDS011;64453;51.944;9.796;2023-02-28T11:29:12;2.40;;;2.20;;
75818;SDS011;64453;51.944;9.796;2023-02-28T11:32:05;1.87;;;1.73;;
75818;SDS011;64453;51.944;9.796;2023-02-28T11:34:40;1.87;;;1.77;;
75818;SDS011;64453;51.944;9.796;2023-02-28T11:37:10;1.93;;;1.80;;
75818;SDS011;64453;51.944;9.796;2023-02-28T11:39:42;1.80;;;1.70;;
75818;SDS011;64453;51.944;9.796;2023-02-28T11:45:13;2.07;;;1.97;;
75818;SDS011;64453;51.944;9.796;2023-02-28T11:47:51;2.00;;;1.90;;
75818;SDS011;64453;51.944;9.796;2023-02-28T11:50:39;3.10;;;1.83;;
75818;SDS011;64453;51.944;9.796;2023-02-28T11:53:22;2.13;;;2.03;;
75818;SDS011;64453;51.944;9.796;2023-02-28T11:56:14;2.33;;;1.83;;
75818;SDS011;64453;51.944;9.796;2023-02-28T11:58:52;1.80;;;1.70;;
75818;SDS011;64453;51.944;9.796;2023-02-28T12:01:36;2.77;;;1.80;;
75818;SDS011;64453;51.944;9.796;2023-02-28T12:04:22;1.77;;;1.67;;
75818;SDS011;64453;51.944;9.796;2023-02-28T12:06:55;1.90;;;1.80;;
75818;SDS011;64453;51.944;9.796;2023-02-28T12:09:32;2.20;;;2.10;;
75818;SDS011;64453;51.944;9.796;2023-02-28T12:12:23;3.00;;;2.80;;
75818;SDS011;64453;51.944;9.796;2023-02-28T12:15:24;4.23;;;3.83;;
75818;SDS011;64453;51.944;9.796;2023-02-28T12:18:23;3.13;;;2.83;;
75818;SDS011;64453;51.944;9.796;2023-02-28T12:21:09;2.23;;;2.03;;
75818;SDS011;64453;51.944;9.796;2023-02-28T12:23:47;3.87;;;3.47;;
75818;SDS011;64453;51.944;9.796;2023-02-28T12:26:28;3.40;;;3.10;;
75818;SDS011;64453;51.944;9.796;2023-02-28T12:29:08;2.93;;;2.70;;
75818;SDS011;64453;51.944;9.796;2023-02-28T12:31:44;3.33;;;3.03;;
75818;SDS011;64453;51.944;9.796;2023-02-28T12:34:16;2.30;;;2.10;;
75818;SDS011;64453;51.944;9.796;2023-02-28T12:36:46;1.50;;;1.50;;
75818;SDS011;64453;51.944;9.796;2023-02-28T12:39:18;1.37;;;1.37;;
75818;SDS011;64453;51.944;9.796;2023-02-28T12:41:51;1.40;;;1.40;;
75818;SDS011;64453;51.944;9.796;2023-02-28T12:44:26;2.00;;;1.90;;
75818;SDS011;64453;51.944;9.796;2023-02-28T12:46:58;2.10;;;2.00;;
75818;SDS011;64453;51.944;9.796;2023-02-28T12:49:30;1.93;;;1.70;;
75818;SDS011;64453;51.944;9.796;2023-02-28T12:52:00;2.20;;;2.07;;
75818;SDS011;64453;51.944;9.796;2023-02-28T12:54:30;2.07;;;1.97;;
75818;SDS011;64453;51.944;9.796;2023-02-28T12:57:06;2.07;;;1.80;;
75818;SDS011;64453;51.944;9.796;2023-02-28T12:59:41;2.00;;;1.90;;
75818;SDS011;64453;51.944;9.796;2023-02-28T13:02:20;3.23;;;2.20;;
75818;SDS011;64453;51.944;9.796;2023-02-28T13:05:07;1.70;;;1.60;;
75818;SDS011;64453;51.944;9.796;2023-02-28T13:07:56;2.00;;;1.90;;
75818;SDS011;64453;51.944;9.796;2023-02-28T13:10:48;2.50;;;2.30;;
75818;SDS011;64453;51.944;9.796;2023-02-28T13:13:20;2.27;;;1.87;;
75818;SDS011;64453;51.944;9.796;2023-02-28T13:16:01;2.00;;;1.90;;
75818;SDS011;64453;51.944;9.796;2023-02-28T13:18:32;2.23;;;2.10;;
75818;SDS011;64453;51.944;9.796;2023-02-28T13:21:02;2.20;;;2.00;;
75818;SDS011;64453;51.944;9.796;2023-02-28T13:23:39;2.10;;;2.00;;
75818;SDS011;64453;51.944;9.796;2023-02-28T13:26:23;1.83;;;1.73;;
75818;SDS011;64453;51.944;9.796;2023-02-28T13:29:59;1.90;;;1.80;;
75818;SDS011;64453;51.944;9.796;2023-02-28T13:32:31;2.23;;;1.93;;
75818;SDS011;64453;51.944;9.796;2023-02-28T13:35:13;2.07;;;1.97;;
75818;SDS011;64453;51.944;9.796;2023-02-28T13:38:17;2.20;;;2.00;;
75818;SDS011;64453;51.944;9.796;2023-02-28T13:40:51;2.10;;;2.00;;
75818;SDS011;64453;51.944;9.796;2023-02-28T13:43:18;2.00;;;1.90;;
75818;SDS011;64453;51.944;9.796;2023-02-28T13:48:36;1.90;;;1.80;;
75818;SDS011;64453;51.944;9.796;2023-02-28T13:54:09;2.40;;;2.30;;
75818;SDS011;64453;51.944;9.796;2023-02-28T13:56:57;2.67;;;2.47;;
75818;SDS011;64453;51.944;9.796;2023-02-28T13:59:43;2.60;;;2.40;;
75818;SDS011;64453;51.944;9.796;2023-02-28T14:02:28;3.13;;;1.93;;
75818;SDS011;64453;51.944;9.796;2023-02-28T14:05:13;2.77;;;2.60;;
75818;SDS011;64453;51.944;9.796;2023-02-28T14:07:45;2.87;;;2.40;;
75818;SDS011;64453;51.944;9.796;2023-02-28T14:10:22;2.30;;;2.20;;
75818;SDS011;64453;51.944;9.796;2023-02-28T14:12:57;2.27;;;2.17;;
75818;SDS011;64453;51.944;9.796;2023-02-28T14:15:41;2.83;;;2.27;;
75818;SDS011;64453;51.944;9.796;2023-02-28T14:18:27;2.33;;;2.23;;
75818;SDS011;64453;51.944;9.796;2023-02-28T14:20:58;2.17;;;2.07;;
75818;SDS011;64453;51.944;9.796;2023-02-28T14:23:43;2.27;;;2.17;;
75818;SDS011;64453;51.944;9.796;2023-02-28T14:26:41;2.87;;;2.50;;
75818;SDS011;64453;51.944;9.796;2023-02-28T14:32:48;4.00;;;3.60;;
75818;SDS011;64453;51.944;9.796;2023-02-28T14:35:35;2.80;;;2.60;;
75818;SDS011;64453;51.944;9.796;2023-02-28T14:38:17;2.40;;;2.30;;
75818;SDS011;64453;51.944;9.796;2023-02-28T14:40:49;2.20;;;2.10;;
75818;SDS011;64453;51.944;9.796;2023-02-28T14:43:20;2.40;;;2.30;;
75818;SDS011;64453;51.944;9.796;2023-02-28T14:45:49;2.20;;;2.10;;
75818;SDS011;64453;51.944;9.796;2023-02-28T14:48:18;2.23;;;2.13;;
75818;SDS011;64453;51.944;9.796;2023-02-28T14:50:52;2.90;;;2.70;;
75818;SDS011;64453;51.944;9.796;2023-02-28T14:53:21;3.10;;;2.90;;
75818;SDS011;64453;51.944;9.796;2023-02-28T14:55:52;2.20;;;2.00;;
75818;SDS011;64453;51.944;9.796;2023-02-28T14:58:21;2.10;;;2.00;;
75818;SDS011;64453;51.944;9.796;2023-02-28T15:00:52;2.27;;;2.07;;
75818;SDS011;64453;51.944;9.796;2023-02-28T15:03:22;2.70;;;2.50;;
75818;SDS011;64453;51.944;9.796;2023-02-28T15:05:56;3.17;;;2.60;;
75818;SDS011;64453;51.944;9.796;2023-02-28T15:08:25;2.43;;;2.33;;
75818;SDS011;64453;51.944;9.796;2023-02-28T15:10:55;2.63;;;2.43;;
75818;SDS011;64453;51.944;9.796;2023-02-28T15:13:26;2.43;;;2.27;;
75818;SDS011;64453;51.944;9.796;2023-02-28T15:16:02;2.13;;;2.03;;
75818;SDS011;64453;51.944;9.796;2023-02-28T15:18:38;2.33;;;2.23;;
75818;SDS011;64453;51.944;9.796;2023-02-28T15:21:17;2.30;;;2.20;;
75818;SDS011;64453;51.944;9.796;2023-02-28T15:23:53;2.30;;;2.20;;
75818;SDS011;64453;51.944;9.796;2023-02-28T15:26:28;2.87;;;2.67;;
75818;SDS011;64453;51.944;9.796;2023-02-28T15:29:00;2.40;;;2.30;;
75818;SDS011;64453;51.944;9.796;2023-02-28T15:31:35;2.70;;;2.60;;
75818;SDS011;64453;51.944;9.796;2023-02-28T15:34:15;3.97;;;3.67;;
75818;SDS011;64453;51.944;9.796;2023-02-28T15:36:50;3.17;;;2.97;;
75818;SDS011;64453;51.944;9.796;2023-02-28T15:39:20;3.00;;;2.80;;
75818;SDS011;64453;51.944;9.796;2023-02-28T15:41:52;2.90;;;2.80;;